Time;durP1;ratioP1;P1;durP2;ratioP2;P2;SDS_P1;SDS_P2;PMS_P1;PMS_P2;Temp;Humidity;BMP_temperature;BMP_pressure;BME280_temperature;BME280_humidity;BME280_pressure;Samples;Min_cycle;Max_cycle;Signal;HPM_P1;HPM_P2
2022/06/06 00:01:19;;;;;;;22.63;14.48;;;18.70;99.90;;;;;;5014357;28;20463;-73
2022/06/06 00:03:44;;;;;;;16.95;11.80;;;18.80;99.90;;;;;;5014016;28;20137;-72
2022/06/06 00:06:15;;;;;;;23.45;13.95;;;18.80;99.90;;;;;;5014618;28;20140;-72
2022/06/06 00:08:41;;;;;;;20.35;13.32;;;18.80;99.90;;;;;;4997347;28;20097;-73
2022/06/06 00:11:09;;;;;;;22.48;14.00;;;18.40;99.90;;;;;;5014575;28;20078;-73
2022/06/06 00:13:39;;;;;;;17.83;12.48;;;18.40;99.90;;;;;;4996998;28;20041;-73
2022/06/06 00:16:06;;;;;;;16.00;10.90;;;18.50;99.90;;;;;;4997167;28;20559;-73
2022/06/06 00:18:32;;;;;;;15.93;11.23;;;18.60;99.90;;;;;;4997299;28;20056;-73
2022/06/06 00:20:59;;;;;;;20.55;14.15;;;18.60;99.90;;;;;;5014304;28;20140;-72
2022/06/06 00:23:25;;;;;;;19.27;13.55;;;18.70;99.90;;;;;;5014362;28;20046;-72
2022/06/06 00:25:53;;;;;;;15.10;11.57;;;18.50;99.90;;;;;;5014411;28;20053;-72
2022/06/06 00:28:19;;;;;;;16.45;13.00;;;18.60;99.90;;;;;;4996928;28;20057;-72
2022/06/06 00:30:45;;;;;;;17.90;13.38;;;18.40;99.90;;;;;;5014007;28;20493;-72
2022/06/06 00:35:59;;;;;;;29.33;18.13;;;18.20;99.90;;;;;;5014234;28;20054;-73
2022/06/06 00:38:26;;;;;;;30.83;17.90;;;18.10;99.90;;;;;;5014136;28;20406;-72
2022/06/06 00:40:52;;;;;;;27.10;16.85;;;18.00;99.90;;;;;;5014045;28;20037;-73
2022/06/06 00:43:18;;;;;;;31.33;17.95;;;17.90;99.90;;;;;;5014059;28;20380;-72
2022/06/06 00:45:50;;;;;;;38.17;20.90;;;17.90;99.90;;;;;;5014001;28;20077;-72
2022/06/06 00:48:22;;;;;;;29.75;19.02;;;17.70;99.90;;;;;;4996772;28;20129;-75
2022/06/06 00:51:01;;;;;;;28.40;18.90;;;17.70;99.90;;;;;;5013958;28;20046;-72
2022/06/06 00:53:31;;;;;;;24.92;16.75;;;17.70;99.90;;;;;;5014011;28;20049;-72
2022/06/06 00:56:03;;;;;;;37.00;21.30;;;17.60;99.90;;;;;;5014011;28;20172;-72
2022/06/06 00:58:30;;;;;;;34.65;20.50;;;17.60;99.90;;;;;;5013972;28;20045;-72
2022/06/06 01:00:56;;;;;;;22.52;15.75;;;17.70;99.90;;;;;;4995915;28;20499;-72
2022/06/06 01:03:24;;;;;;;42.55;21.63;;;17.70;99.90;;;;;;5013215;28;20065;-72
2022/06/06 01:05:52;;;;;;;20.75;15.65;;;17.80;99.90;;;;;;5013907;28;20046;-72
2022/06/06 01:08:20;;;;;;;33.45;19.10;;;17.80;99.90;;;;;;5013722;28;20128;-72
2022/06/06 01:10:46;;;;;;;39.15;21.35;;;18.00;99.90;;;;;;4996759;28;20108;-72
2022/06/06 01:13:14;;;;;;;32.42;17.52;;;18.00;99.90;;;;;;5013679;28;20053;-73
2022/06/06 01:16:01;;;;;;;29.20;16.85;;;18.00;99.90;;;;;;4983070;28;20236;-73
2022/06/06 01:18:44;;;;;;;19.92;14.07;;;18.10;99.90;;;;;;5017978;28;20487;-73
2022/06/06 01:21:20;;;;;;;25.90;16.45;;;18.10;99.90;;;;;;5000412;28;20077;-72
2022/06/06 01:24:04;;;;;;;23.55;14.98;;;17.80;99.90;;;;;;5017830;28;20050;-73
2022/06/06 01:27:01;;;;;;;23.35;15.82;;;17.70;99.90;;;;;;5017752;28;20445;-72
2022/06/06 01:29:36;;;;;;;27.25;15.93;;;17.50;99.90;;;;;;5000293;28;20053;-72
2022/06/06 01:32:10;;;;;;;35.00;18.33;;;17.30;99.90;;;;;;5017303;28;20050;-73
2022/06/06 01:34:39;;;;;;;35.22;18.75;;;17.30;99.90;;;;;;5017576;28;20053;-72
2022/06/06 01:37:23;;;;;;;32.97;17.50;;;17.20;99.90;;;;;;4999842;28;20046;-73
2022/06/06 01:39:49;;;;;;;35.38;18.63;;;17.30;99.90;;;;;;5017432;28;20462;-72
2022/06/06 01:42:19;;;;;;;34.42;19.52;;;17.00;99.90;;;;;;4999886;28;20053;-73
2022/06/06 01:44:52;;;;;;;33.38;18.85;;;16.70;99.90;;;;;;5017329;28;20089;-73
2022/06/06 01:47:26;;;;;;;39.72;20.20;;;16.60;99.90;;;;;;5017357;28;20042;-73
2022/06/06 01:49:55;;;;;;;34.45;19.60;;;16.50;99.90;;;;;;5017368;28;20437;-73
2022/06/06 01:52:20;;;;;;;41.33;21.60;;;16.60;99.90;;;;;;5017165;28;20057;-72
2022/06/06 01:54:46;;;;;;;33.08;18.50;;;16.50;99.90;;;;;;4999672;28;20141;-72
2022/06/06 01:57:14;;;;;;;27.98;16.55;;;16.20;99.90;;;;;;5017131;28;20045;-72
2022/06/06 01:59:41;;;;;;;33.63;16.70;;;16.10;99.90;;;;;;5016964;28;20052;-72
2022/06/06 02:02:07;;;;;;;33.40;18.48;;;16.10;99.90;;;;;;4999322;28;20487;-73
2022/06/06 02:04:33;;;;;;;30.83;17.10;;;16.20;99.90;;;;;;5017007;28;20136;-73
2022/06/06 02:06:59;;;;;;;27.48;16.52;;;16.10;99.90;;;;;;5017052;28;20088;-72
2022/06/06 02:09:26;;;;;;;28.85;16.48;;;15.90;99.90;;;;;;4999577;28;20045;-72
2022/06/06 02:11:51;;;;;;;27.23;15.32;;;15.90;99.90;;;;;;4999458;28;20062;-73
2022/06/06 02:14:17;;;;;;;24.10;13.60;;;15.90;99.90;;;;;;5016507;28;20104;-73
2022/06/06 02:16:43;;;;;;;29.30;14.38;;;16.00;99.90;;;;;;4999429;28;20057;-73
2022/06/06 02:19:11;;;;;;;26.38;13.65;;;16.00;99.90;;;;;;5016640;28;20053;-72
2022/06/06 02:21:37;;;;;;;23.23;14.40;;;16.00;99.90;;;;;;4999329;28;20136;-72
2022/06/06 02:24:03;;;;;;;29.60;14.68;;;16.00;99.90;;;;;;5016714;28;20045;-72
2022/06/06 02:26:29;;;;;;;20.45;12.25;;;16.00;99.90;;;;;;4998582;28;20060;-72
2022/06/06 02:28:55;;;;;;;21.27;11.02;;;16.00;99.90;;;;;;5016722;28;20045;-72
2022/06/06 02:31:20;;;;;;;21.42;10.63;;;15.80;99.90;;;;;;5016410;28;20042;-72
2022/06/06 02:33:46;;;;;;;15.10;9.43;;;15.80;99.90;;;;;;5016406;28;20559;-72
2022/06/06 02:36:12;;;;;;;16.75;9.73;;;15.70;99.90;;;;;;4999385;28;20088;-72
2022/06/06 02:38:37;;;;;;;14.88;9.05;;;15.70;99.90;;;;;;5016282;28;20045;-72
2022/06/06 02:41:09;;;;;;;11.65;8.52;;;15.60;99.90;;;;;;5016093;28;20133;-72
2022/06/06 02:43:40;;;;;;;19.98;10.07;;;15.50;99.90;;;;;;4983653;28;20052;-72
2022/06/06 02:46:11;;;;;;;15.73;9.60;;;15.50;99.90;;;;;;4999075;28;20433;-72
2022/06/06 02:48:37;;;;;;;12.77;8.80;;;15.60;99.90;;;;;;5016229;28;20120;-72
2022/06/06 02:51:04;;;;;;;19.13;10.68;;;15.60;99.90;;;;;;5016058;28;20049;-72
2022/06/06 02:53:30;;;;;;;16.85;9.50;;;15.70;99.90;;;;;;5015969;28;20475;-72
2022/06/06 02:55:57;;;;;;;14.93;9.93;;;15.60;99.90;;;;;;4998706;28;20565;-72
2022/06/06 02:58:24;;;;;;;23.20;10.40;;;15.80;99.90;;;;;;5015993;28;20057;-72
2022/06/06 03:01:06;;;;;;;12.80;9.00;;;15.90;99.90;;;;;;5015808;28;20104;-72
2022/06/06 03:03:32;;;;;;;19.70;10.73;;;16.00;99.90;;;;;;4997966;28;20505;-72
2022/06/06 03:06:10;;;;;;;19.80;9.45;;;16.10;99.90;;;;;;5015827;28;20054;-73
2022/06/06 03:09:01;;;;;;;17.92;9.85;;;16.20;99.90;;;;;;4998572;28;20390;-73
2022/06/06 03:11:47;;;;;;;15.40;9.55;;;16.20;99.90;;;;;;5016062;28;20125;-73
2022/06/06 03:14:22;;;;;;;18.33;10.10;;;16.10;99.90;;;;;;5015837;28;20111;-73
2022/06/06 03:22:44;;;;;;;20.95;11.57;;;16.00;99.90;;;;;;5015729;28;20060;-72
2022/06/06 03:25:36;;;;;;;18.85;11.80;;;15.70;99.90;;;;;;5015626;28;20045;-73
2022/06/06 03:28:16;;;;;;;24.13;12.75;;;15.80;99.90;;;;;;5015479;28;20042;-72
2022/06/06 03:31:17;;;;;;;22.38;11.73;;;15.80;99.90;;;;;;4998162;28;20132;-73
2022/06/06 03:34:17;;;;;;;23.00;12.23;;;15.80;99.90;;;;;;5015431;28;20073;-72
2022/06/06 03:37:06;;;;;;;18.70;10.70;;;15.60;99.90;;;;;;4997637;28;20049;-72
2022/06/06 03:39:59;;;;;;;18.63;10.25;;;15.60;99.90;;;;;;5014127;28;20050;-72
2022/06/06 03:43:15;;;;;;;17.02;10.32;;;15.70;99.90;;;;;;4998050;28;20052;-72
2022/06/06 03:46:08;;;;;;;19.42;9.77;;;15.70;99.90;;;;;;5015084;28;20077;-72
2022/06/06 03:48:56;;;;;;;13.85;8.95;;;15.70;99.90;;;;;;4997601;28;20052;-72
2022/06/06 03:51:45;;;;;;;17.98;8.50;;;15.70;99.90;;;;;;4997734;28;20585;-72
2022/06/06 03:54:35;;;;;;;12.93;8.27;;;15.70;99.90;;;;;;4997616;28;20140;-72
2022/06/06 03:57:07;;;;;;;12.35;8.20;;;15.70;99.90;;;;;;4997658;28;20115;-73
2022/06/06 03:59:36;;;;;;;13.75;8.65;;;15.60;99.90;;;;;;5014767;28;20499;-72
2022/06/06 04:02:05;;;;;;;10.85;6.88;;;15.60;99.90;;;;;;5014571;28;20058;-72
2022/06/06 04:04:32;;;;;;;10.60;6.55;;;15.70;99.90;;;;;;5014562;28;20155;-73
2022/06/06 04:07:00;;;;;;;13.23;7.70;;;15.80;99.90;;;;;;4997357;28;20541;-72
2022/06/06 04:09:29;;;;;;;14.27;8.25;;;15.80;99.90;;;;;;5014699;28;20111;-73
2022/06/06 04:12:06;;;;;;;11.75;7.53;;;15.80;99.90;;;;;;5014918;28;20125;-73
2022/06/06 04:14:51;;;;;;;10.38;7.47;;;15.90;99.90;;;;;;4997292;28;20112;-72
2022/06/06 04:17:45;;;;;;;8.43;5.82;;;15.90;99.90;;;;;;4997302;28;20112;-72
2022/06/06 04:20:36;;;;;;;11.77;7.45;;;15.90;99.90;;;;;;5003530;28;20140;-72
2022/06/06 04:23:46;;;;;;;9.50;6.10;;;15.90;99.90;;;;;;5014090;28;20045;-73
2022/06/06 04:26:20;;;;;;;8.02;5.50;;;15.80;99.90;;;;;;4993123;28;20058;-72
2022/06/06 04:28:52;;;;;;;9.77;6.15;;;15.80;99.90;;;;;;5014360;28;20088;-72
2022/06/06 04:31:38;;;;;;;8.25;6.03;;;15.80;99.90;;;;;;4996796;28;20061;-72
2022/06/06 04:34:20;;;;;;;6.45;4.60;;;15.90;99.90;;;;;;4996725;28;20129;-72
2022/06/06 04:37:13;;;;;;;6.53;4.85;;;15.90;99.90;;;;;;4997282;28;20054;-73
2022/06/06 04:40:09;;;;;;;9.18;5.40;;;16.10;99.90;;;;;;4996849;28;20046;-73
2022/06/06 04:42:56;;;;;;;7.05;3.95;;;16.20;99.90;;;;;;5013605;28;20082;-74
2022/06/06 04:45:53;;;;;;;5.15;3.88;;;16.30;99.90;;;;;;4995622;28;20058;-74
2022/06/06 04:48:20;;;;;;;6.10;4.38;;;16.20;99.90;;;;;;5014107;28;20044;-73
2022/06/06 04:50:46;;;;;;;5.35;3.80;;;16.20;99.90;;;;;;5013718;28;20125;-72
2022/06/06 04:53:17;;;;;;;8.10;4.45;;;16.20;99.90;;;;;;4980280;28;20451;-72
2022/06/06 04:55:46;;;;;;;7.43;5.25;;;16.00;99.90;;;;;;5014102;28;20046;-72
2022/06/06 04:58:12;;;;;;;11.68;6.20;;;16.00;99.90;;;;;;4996444;28;20509;-72
2022/06/06 05:00:40;;;;;;;12.57;6.38;;;16.00;99.90;;;;;;5013831;28;20041;-72
2022/06/06 05:03:06;;;;;;;14.10;6.07;;;16.00;99.90;;;;;;5013200;28;20065;-72
2022/06/06 05:05:44;;;;;;;8.48;5.40;;;16.00;99.90;;;;;;4996209;28;20061;-72
2022/06/06 05:08:34;;;;;;;8.57;5.32;;;15.90;99.90;;;;;;5013601;28;20509;-72
2022/06/06 05:11:22;;;;;;;8.77;5.30;;;15.80;99.90;;;;;;4996498;28;20441;-73
2022/06/06 05:14:09;;;;;;;10.05;5.50;;;15.90;99.90;;;;;;5013952;28;20053;-72
2022/06/06 05:16:43;;;;;;;14.07;6.72;;;15.80;99.90;;;;;;4996362;28;20053;-72
2022/06/06 05:19:38;;;;;;;11.00;6.35;;;15.80;99.90;;;;;;5013723;28;20490;-72
2022/06/06 05:22:25;;;;;;;14.02;7.20;;;15.90;99.90;;;;;;5013676;28;20521;-72
2022/06/06 05:25:28;;;;;;;15.80;8.30;;;15.60;99.90;;;;;;5013656;28;20057;-72
2022/06/06 05:28:06;;;;;;;16.58;8.45;;;15.70;99.90;;;;;;4969673;28;20062;-74
2022/06/06 05:31:10;;;;;;;17.77;9.00;;;15.70;99.90;;;;;;5013947;28;20046;-72
2022/06/06 05:34:07;;;;;;;12.50;6.97;;;15.70;99.90;;;;;;4948330;28;20050;-72
2022/06/06 05:36:52;;;;;;;19.55;9.27;;;15.50;99.90;;;;;;4996358;28;20506;-72
2022/06/06 05:39:36;;;;;;;22.60;9.63;;;15.40;99.90;;;;;;4996704;28;20133;-72
2022/06/06 05:42:36;;;;;;;18.85;8.52;;;15.40;99.90;;;;;;5013587;28;20060;-73
2022/06/06 05:45:13;;;;;;;20.83;9.45;;;15.20;99.90;;;;;;4946684;28;20610;-72
2022/06/06 05:48:06;;;;;;;21.17;9.18;;;15.20;99.90;;;;;;4996366;28;20085;-72
2022/06/06 05:50:42;;;;;;;19.70;9.25;;;15.10;99.90;;;;;;5013455;28;20042;-72
2022/06/06 05:53:13;;;;;;;16.88;8.18;;;15.20;99.90;;;;;;5013490;28;20053;-72
2022/06/06 05:55:58;;;;;;;17.25;8.63;;;15.10;99.90;;;;;;4996146;28;20050;-72
2022/06/06 05:58:47;;;;;;;18.50;8.90;;;15.20;99.90;;;;;;4996357;28;20045;-72
2022/06/06 06:01:38;;;;;;;18.80;9.02;;;15.30;99.90;;;;;;4996181;28;20050;-74
2022/06/06 06:04:22;;;;;;;21.45;9.52;;;15.30;99.90;;;;;;4996161;28;20062;-72
2022/06/06 06:06:57;;;;;;;20.05;10.55;;;15.40;99.90;;;;;;4997316;28;20058;-73
2022/06/06 06:09:44;;;;;;;22.88;10.48;;;15.30;99.90;;;;;;5012561;28;20046;-72
2022/06/06 06:12:47;;;;;;;21.73;10.20;;;15.20;99.90;;;;;;4997636;28;20042;-72
2022/06/06 06:15:28;;;;;;;23.50;10.70;;;15.10;99.90;;;;;;4996584;28;20113;-73
2022/06/06 06:17:55;;;;;;;26.35;11.23;;;15.20;99.90;;;;;;4997327;28;20141;-72
2022/06/06 06:20:25;;;;;;;23.40;11.43;;;15.10;99.90;;;;;;4995888;28;20499;-73
2022/06/06 06:22:55;;;;;;;22.27;11.00;;;15.10;99.90;;;;;;4996090;28;20125;-72
2022/06/06 06:25:23;;;;;;;24.40;11.45;;;15.20;99.90;;;;;;4997065;28;20054;-72
2022/06/06 06:27:52;;;;;;;20.70;9.80;;;15.10;99.90;;;;;;4996684;28;20499;-71
2022/06/06 06:30:18;;;;;;;24.65;10.65;;;15.20;99.90;;;;;;4996914;28;20050;-72
2022/06/06 06:33:19;;;;;;;18.70;9.73;;;15.30;99.90;;;;;;4995590;28;20050;-72
2022/06/06 06:36:07;;;;;;;20.67;9.52;;;15.50;99.90;;;;;;4996838;28;20476;-72
2022/06/06 06:39:14;;;;;;;16.63;8.27;;;15.40;99.90;;;;;;4995919;28;20050;-72
2022/06/06 06:42:11;;;;;;;17.42;10.25;;;15.20;99.90;;;;;;4996243;28;20054;-73
2022/06/06 06:44:46;;;;;;;19.40;9.10;;;15.20;99.90;;;;;;4996749;28;20109;-72
2022/06/06 06:47:17;;;;;;;18.15;8.95;;;15.20;99.90;;;;;;4996668;28;20101;-75
2022/06/06 06:49:51;;;;;;;21.17;10.32;;;15.30;99.90;;;;;;4996635;28;20062;-72
2022/06/06 06:52:46;;;;;;;11.70;7.32;;;15.30;99.90;;;;;;4996543;28;20105;-72
2022/06/06 06:55:30;;;;;;;13.43;7.18;;;15.20;99.90;;;;;;4996560;28;20047;-72
2022/06/06 06:58:09;;;;;;;10.45;6.00;;;15.20;99.90;;;;;;4995267;28;20049;-73
2022/06/06 07:00:47;;;;;;;10.70;6.05;;;15.10;99.90;;;;;;4996418;28;20433;-72
2022/06/06 07:09:31;;;;;;;10.32;5.40;;;15.10;99.90;;;;;;4998325;28;20050;-72
2022/06/06 07:12:34;;;;;;;10.20;5.55;;;15.30;99.90;;;;;;5015585;28;20050;-73
2022/06/06 07:15:37;;;;;;;8.90;4.85;;;15.30;99.90;;;;;;4998259;28;20056;-72
2022/06/06 07:18:06;;;;;;;10.00;4.93;;;15.50;99.90;;;;;;4998100;28;20050;-73
2022/06/06 07:20:34;;;;;;;14.18;5.70;;;15.50;99.90;;;;;;5015141;28;20490;-72
2022/06/06 07:23:04;;;;;;;10.40;5.70;;;15.60;99.90;;;;;;4982068;28;20054;-73
2022/06/06 07:25:40;;;;;;;10.13;5.80;;;15.70;99.90;;;;;;5015478;28;20126;-72
2022/06/06 07:28:11;;;;;;;15.77;6.15;;;15.90;99.90;;;;;;5015471;28;20042;-72
2022/06/06 07:31:03;;;;;;;15.75;6.25;;;15.90;99.90;;;;;;5015414;28;20038;-72
2022/06/06 07:33:49;;;;;;;15.23;7.85;;;15.90;99.90;;;;;;4997771;28;20065;-72
2022/06/06 07:36:43;;;;;;;11.95;6.80;;;16.00;99.90;;;;;;4998114;28;20434;-72
2022/06/06 07:39:44;;;;;;;13.82;7.13;;;16.00;99.90;;;;;;4997913;28;20062;-72
2022/06/06 07:42:16;;;;;;;14.95;7.43;;;16.10;99.90;;;;;;4974660;28;20495;-72
2022/06/06 07:45:01;;;;;;;11.77;6.75;;;16.10;99.90;;;;;;4997893;28;20123;-71
2022/06/06 07:47:36;;;;;;;11.02;6.80;;;16.10;99.90;;;;;;5015191;28;20049;-72
2022/06/06 07:50:09;;;;;;;15.60;7.70;;;16.10;99.90;;;;;;4997660;28;20498;-74
2022/06/06 07:53:13;;;;;;;12.60;6.30;;;16.10;99.90;;;;;;4997852;28;20072;-71
2022/06/06 07:56:17;;;;;;;11.45;5.68;;;16.30;99.90;;;;;;5011021;28;20058;-74
2022/06/06 07:58:58;;;;;;;11.25;5.38;;;16.40;99.90;;;;;;4970549;28;20096;-72
2022/06/06 08:01:48;;;;;;;10.90;5.15;;;16.60;99.90;;;;;;5014765;28;20049;-72
2022/06/06 08:04:49;;;;;;;8.70;4.47;;;16.80;99.90;;;;;;5014938;28;20478;-72
2022/06/06 08:07:34;;;;;;;7.50;4.60;;;16.70;99.90;;;;;;4997423;28;20141;-73
2022/06/06 08:10:03;;;;;;;10.68;4.80;;;16.60;99.90;;;;;;4997540;28;20046;-72
2022/06/06 08:12:44;;;;;;;10.65;5.25;;;16.50;99.90;;;;;;5014669;28;20140;-72
2022/06/06 08:15:21;;;;;;;10.65;5.18;;;16.60;99.90;;;;;;5014722;28;20049;-70
2022/06/06 08:18:22;;;;;;;10.35;4.70;;;16.70;99.90;;;;;;5014519;28;20045;-74
2022/06/06 08:21:06;;;;;;;10.50;4.82;;;16.70;99.90;;;;;;5014642;28;20128;-71
2022/06/06 08:23:34;;;;;;;7.28;4.70;;;17.00;99.90;;;;;;5014234;28;20132;-70
2022/06/06 08:26:01;;;;;;;10.07;4.80;;;17.10;99.90;;;;;;4996691;28;20449;-69
2022/06/06 08:28:29;;;;;;;8.70;4.95;;;17.40;99.90;;;;;;5014418;28;20046;-71
2022/06/06 08:30:56;;;;;;;11.63;4.70;;;17.40;99.90;;;;;;4996985;28;20054;-71
2022/06/06 08:33:22;;;;;;;11.07;4.93;;;17.50;99.90;;;;;;5013975;28;20057;-71
2022/06/06 08:36:08;;;;;;;10.95;5.18;;;17.30;99.90;;;;;;5014222;28;20049;-71
2022/06/06 08:38:52;;;;;;;10.77;5.40;;;16.90;99.90;;;;;;5014690;28;20176;-70
2022/06/06 08:41:56;;;;;;;10.38;4.93;;;17.00;99.90;;;;;;5014090;28;21019;-71
2022/06/06 08:44:53;;;;;;;14.70;4.80;;;17.10;99.90;;;;;;5014337;28;20053;-71
2022/06/06 08:47:29;;;;;;;7.28;4.20;;;17.50;99.90;;;;;;5014353;28;20466;-71
2022/06/06 08:53:09;;;;;;;10.35;3.80;;;17.70;99.90;;;;;;5014032;28;20163;-70
2022/06/06 08:56:03;;;;;;;13.23;4.00;;;17.70;99.90;;;;;;5014115;28;20052;-70
2022/06/06 08:58:43;;;;;;;11.38;4.00;;;17.70;99.90;;;;;;5014112;28;20123;-70
2022/06/06 09:01:30;;;;;;;8.85;3.60;;;17.90;99.90;;;;;;4996360;28;20049;-70
2022/06/06 09:04:32;;;;;;;7.05;3.47;;;18.20;99.90;;;;;;5013673;28;20132;-71
2022/06/06 09:07:25;;;;;;;10.70;2.95;;;18.40;99.90;;;;;;5013970;28;20049;-71
2022/06/06 09:10:10;;;;;;;8.55;3.05;;;18.30;99.90;;;;;;5013747;28;20057;-71
2022/06/06 09:13:18;;;;;;;8.98;3.42;;;18.30;99.90;;;;;;5013880;28;20050;-71
2022/06/06 09:16:21;;;;;;;10.85;3.00;;;18.20;99.90;;;;;;5013927;28;20054;-71
2022/06/06 09:19:11;;;;;;;8.35;2.67;;;18.30;99.90;;;;;;5013666;28;20057;-71
2022/06/06 09:21:49;;;;;;;6.55;2.63;;;18.20;99.90;;;;;;5013757;28;20072;-71
2022/06/06 09:24:45;;;;;;;8.05;3.38;;;17.90;99.90;;;;;;4996554;28;20046;-70
2022/06/06 09:27:42;;;;;;;9.32;2.53;;;17.70;99.90;;;;;;5013761;28;20089;-70
2022/06/06 09:30:20;;;;;;;8.00;2.40;;;17.60;99.90;;;;;;5003105;28;20506;-70
2022/06/06 09:33:19;;;;;;;12.88;2.47;;;17.30;99.90;;;;;;5013476;28;20406;-71
2022/06/06 09:36:03;;;;;;;9.23;2.30;;;17.30;99.90;;;;;;5013690;28;20046;-70
2022/06/06 09:38:34;;;;;;;4.70;2.08;;;17.40;99.90;;;;;;5017532;28;20046;-71
2022/06/06 09:41:39;;;;;;;7.32;2.03;;;17.90;99.90;;;;;;4999924;28;20131;-71
2022/06/06 09:44:48;;;;;;;5.40;1.95;;;18.20;99.90;;;;;;5000156;28;20125;-70
2022/06/06 09:47:41;;;;;;;8.80;2.10;;;18.70;99.90;;;;;;5017919;28;20046;-70
2022/06/06 09:50:39;;;;;;;4.53;1.52;;;19.10;99.90;;;;;;5017305;28;20077;-70
2022/06/06 09:53:37;;;;;;;10.02;2.05;;;19.20;99.90;;;;;;5017257;28;20049;-70
2022/06/06 09:59:44;;;;;;;7.50;1.60;;;19.10;99.90;;;;;;4996663;28;20112;-69
2022/06/06 10:02:41;;;;;;;9.90;1.50;;;19.50;99.90;;;;;;5016828;28;20056;-70
2022/06/06 10:05:15;;;;;;;7.35;1.90;;;19.50;99.90;;;;;;5017129;28;20434;-70
2022/06/06 10:07:49;;;;;;;8.00;1.45;;;19.40;99.90;;;;;;5016943;28;20054;-70
2022/06/06 10:10:24;;;;;;;5.55;1.30;;;19.70;99.90;;;;;;5016922;28;20108;-71
2022/06/06 10:12:59;;;;;;;3.92;1.33;;;19.90;99.90;;;;;;5016882;28;20049;-70
2022/06/06 10:15:49;;;;;;;5.63;1.40;;;20.10;99.90;;;;;;4998385;28;20088;-71
2022/06/06 10:18:21;;;;;;;5.10;1.50;;;20.10;99.90;;;;;;5016553;28;20099;-70
2022/06/06 10:21:24;;;;;;;7.18;1.10;;;20.00;99.90;;;;;;5016537;28;20523;-71
2022/06/06 10:24:11;;;;;;;8.70;1.05;;;20.10;99.90;;;;;;4999099;28;20133;-70
2022/06/06 10:26:47;;;;;;;8.20;1.42;;;20.20;99.90;;;;;;5016486;28;20072;-70
2022/06/06 10:29:24;;;;;;;7.95;1.40;;;20.50;99.90;;;;;;5016473;28;20092;-72
2022/06/06 10:32:02;;;;;;;6.00;1.15;;;20.60;99.90;;;;;;4998940;28;20545;-70
2022/06/06 10:34:52;;;;;;;5.63;1.00;;;20.50;99.90;;;;;;5016329;28;20058;-70
2022/06/06 10:37:55;;;;;;;3.58;1.00;;;20.50;99.90;;;;;;5016554;28;20104;-70
2022/06/06 10:40:58;;;;;;;4.30;1.10;;;20.40;99.90;;;;;;5016593;28;20049;-70
2022/06/06 10:43:30;;;;;;;6.43;0.90;;;20.30;99.90;;;;;;5017047;28;20042;-70
2022/06/06 10:46:16;;;;;;;7.85;1.52;;;20.20;99.90;;;;;;5016136;28;20390;-70
2022/06/06 10:49:00;;;;;;;7.22;1.15;;;20.30;99.90;;;;;;5015656;28;20176;-71
2022/06/06 10:51:37;;;;;;;3.63;0.90;;;20.30;99.90;;;;;;5015743;28;20509;-70
2022/06/06 10:54:24;;;;;;;8.07;1.00;;;20.10;99.90;;;;;;5016190;28;20134;-70
2022/06/06 10:56:50;;;;;;;5.65;0.70;;;19.90;99.90;;;;;;5015988;28;20108;-71
2022/06/06 10:59:42;;;;;;;4.97;1.20;;;19.90;99.90;;;;;;5015846;28;20053;-70
2022/06/06 11:02:33;;;;;;;6.00;1.42;;;20.10;99.90;;;;;;5016627;28;20309;-69
2022/06/06 11:05:02;;;;;;;5.18;1.30;;;20.10;99.90;;;;;;4998488;28;20054;-68
2022/06/06 11:07:46;;;;;;;5.90;1.17;;;20.10;99.90;;;;;;5015715;28;20053;-71
2022/06/06 11:10:33;;;;;;;9.55;1.67;;;19.70;99.90;;;;;;5014188;28;20049;-72
2022/06/06 11:13:32;;;;;;;6.13;1.27;;;19.30;99.90;;;;;;5014223;28;20045;-72
2022/06/06 11:16:22;;;;;;;5.72;1.40;;;19.10;99.90;;;;;;5015012;28;20050;-73
2022/06/06 11:18:59;;;;;;;6.13;1.38;;;19.20;99.90;;;;;;5015399;28;20120;-72
2022/06/06 11:21:55;;;;;;;4.32;1.35;;;19.30;99.90;;;;;;5015501;28;20045;-72
2022/06/06 11:24:23;;;;;;;5.80;1.45;;;19.10;99.90;;;;;;4982159;28;20093;-71
2022/06/06 11:27:10;;;;;;;4.85;1.10;;;19.20;99.90;;;;;;5015497;28;20049;-71
2022/06/06 11:29:56;;;;;;;6.35;1.17;;;18.90;99.90;;;;;;5015568;28;20050;-71
2022/06/06 11:32:56;;;;;;;3.22;1.02;;;18.90;99.90;;;;;;5015515;28;20046;-71
2022/06/06 11:35:55;;;;;;;7.55;1.25;;;19.00;99.90;;;;;;5015310;28;20461;-71
2022/06/06 11:38:41;;;;;;;8.65;1.77;;;19.00;99.90;;;;;;5015194;28;20046;-71
2022/06/06 11:41:17;;;;;;;6.82;1.30;;;18.80;99.90;;;;;;5015204;28;20482;-71
2022/06/06 11:44:02;;;;;;;7.13;1.65;;;18.80;99.90;;;;;;5015154;28;20132;-71
2022/06/06 11:46:55;;;;;;;9.02;1.13;;;18.50;99.90;;;;;;4997998;28;20136;-71
2022/06/06 11:49:57;;;;;;;7.25;1.38;;;18.30;99.90;;;;;;5015320;28;20140;-71
2022/06/06 11:52:25;;;;;;;9.45;1.63;;;17.80;99.90;;;;;;5014554;28;20518;-71
2022/06/06 11:55:10;;;;;;;5.25;1.83;;;17.40;99.90;;;;;;5014922;28;20411;-71
2022/06/06 11:57:57;;;;;;;11.77;2.35;;;17.50;99.90;;;;;;5014957;28;20080;-71
2022/06/06 12:00:44;;;;;;;7.55;1.00;;;17.90;99.90;;;;;;5013920;28;20038;-71
2022/06/06 12:03:28;;;;;;;2.90;0.98;;;18.10;99.90;;;;;;5014556;28;20046;-71
2022/06/06 12:06:07;;;;;;;7.25;1.08;;;18.20;99.90;;;;;;5014817;28;20061;-71
2022/06/06 12:08:41;;;;;;;11.82;1.50;;;18.20;99.90;;;;;;4997443;28;20058;-72
2022/06/06 12:11:43;;;;;;;3.72;1.13;;;18.40;99.90;;;;;;4997646;28;20149;-71
2022/06/06 12:14:16;;;;;;;8.40;1.70;;;18.50;99.90;;;;;;5014620;28;20042;-72
2022/06/06 12:17:05;;;;;;;3.25;1.10;;;18.50;99.90;;;;;;5014742;28;20046;-71
2022/06/06 12:19:49;;;;;;;3.10;1.30;;;18.60;99.90;;;;;;4976027;28;20144;-71
2022/06/06 12:22:29;;;;;;;5.43;1.40;;;18.60;99.90;;;;;;5014515;28;20045;-71
2022/06/06 12:25:01;;;;;;;4.30;1.30;;;18.80;99.90;;;;;;5014409;28;20042;-72
2022/06/06 12:28:07;;;;;;;7.80;1.45;;;19.00;99.90;;;;;;5014324;28;20053;-73
2022/06/06 12:30:45;;;;;;;5.55;1.60;;;19.00;99.90;;;;;;4934678;28;20062;-71
2022/06/06 12:33:18;;;;;;;7.80;1.20;;;19.30;99.90;;;;;;5013799;28;20050;-71
2022/06/06 12:35:49;;;;;;;4.93;1.15;;;18.90;99.90;;;;;;4996832;28;20050;-70
2022/06/06 12:38:50;;;;;;;3.38;0.70;;;18.60;99.90;;;;;;5014152;28;20528;-71
2022/06/06 12:41:24;;;;;;;4.50;1.15;;;18.60;99.90;;;;;;5014435;28;20125;-71
2022/06/06 12:43:53;;;;;;;7.68;1.10;;;18.60;99.90;;;;;;5014077;28;20053;-71
2022/06/06 12:47:03;;;;;;;2.90;1.35;;;18.40;99.90;;;;;;5013578;28;20495;-72
2022/06/06 12:49:55;;;;;;;10.07;1.17;;;18.20;99.90;;;;;;4996487;28;20065;-71
2022/06/06 12:52:39;;;;;;;4.38;0.80;;;18.20;99.90;;;;;;5013913;28;20423;-71
2022/06/06 12:55:34;;;;;;;2.80;0.90;;;18.30;99.90;;;;;;5013933;28;20153;-71
2022/06/06 12:58:27;;;;;;;4.00;0.80;;;18.40;99.90;;;;;;5014169;28;20557;-71
2022/06/06 13:04:13;;;;;;;4.32;1.10;;;18.00;99.90;;;;;;5013243;28;20421;-71
2022/06/06 13:06:58;;;;;;;3.72;0.90;;;18.00;99.90;;;;;;4996557;28;20138;-71
2022/06/06 13:09:57;;;;;;;8.45;1.20;;;17.80;99.90;;;;;;5013899;28;20103;-72
2022/06/06 13:12:55;;;;;;;3.78;1.08;;;17.40;99.90;;;;;;5013095;28;20046;-72
2022/06/06 13:15:23;;;;;;;3.75;1.27;;;17.30;99.90;;;;;;5013742;28;20162;-72
2022/06/06 13:17:58;;;;;;;5.35;1.60;;;17.20;99.90;;;;;;5013578;28;20045;-72
2022/06/06 13:20:43;;;;;;;6.57;1.42;;;17.00;99.90;;;;;;5013183;28;20042;-77
2022/06/06 13:23:30;;;;;;;3.78;1.30;;;17.10;99.90;;;;;;5013250;28;20057;-72
2022/06/06 13:26:23;;;;;;;4.63;1.38;;;16.90;99.90;;;;;;5013600;28;20057;-72
2022/06/06 13:28:51;;;;;;;6.78;1.50;;;17.00;99.90;;;;;;5013516;28;20049;-72
2022/06/06 13:31:53;;;;;;;4.50;1.50;;;17.30;99.90;;;;;;5013436;28;20139;-71
2022/06/06 13:34:58;;;;;;;4.20;1.80;;;17.40;99.90;;;;;;5012944;28;20410;-71
2022/06/06 13:37:41;;;;;;;4.55;1.80;;;17.30;99.90;;;;;;4999467;28;20120;-72
2022/06/06 13:40:42;;;;;;;4.30;1.88;;;17.40;99.90;;;;;;5013488;28;20394;-72
2022/06/06 13:43:20;;;;;;;7.18;2.92;;;17.40;99.90;;;;;;4996222;28;20054;-72
2022/06/06 13:45:47;;;;;;;5.93;2.70;;;17.20;99.90;;;;;;5013378;28;20046;-73
2022/06/06 13:48:28;;;;;;;3.97;2.80;;;17.20;99.90;;;;;;5013263;28;20096;-73
2022/06/06 13:51:17;;;;;;;5.45;3.38;;;16.90;99.90;;;;;;4996128;28;20053;-73
2022/06/06 13:53:48;;;;;;;8.40;3.45;;;16.70;99.90;;;;;;5013241;28;20137;-73
2022/06/06 13:56:32;;;;;;;7.18;3.45;;;16.70;99.90;;;;;;5013258;28;20104;-73
2022/06/06 13:59:14;;;;;;;7.55;3.30;;;16.80;99.90;;;;;;4995112;28;20053;-73
2022/06/06 14:02:10;;;;;;;7.28;3.70;;;16.60;99.90;;;;;;4995838;28;20046;-72
2022/06/06 14:04:41;;;;;;;7.68;3.60;;;16.70;99.90;;;;;;5013307;28;20096;-72
2022/06/06 14:07:11;;;;;;;5.68;3.65;;;16.70;99.90;;;;;;5013450;28;20411;-72
2022/06/06 14:09:46;;;;;;;7.32;4.57;;;16.70;99.90;;;;;;5013276;28;20046;-73
2022/06/06 14:12:26;;;;;;;6.43;3.67;;;16.70;99.90;;;;;;5013240;28;20041;-73